Time;durP1;ratioP1;P1;durP2;ratioP2;P2;SDS_P1;SDS_P2;PMS_P1;PMS_P2;Temp;Humidity;BMP_temperature;BMP_pressure;BME280_temperature;BME280_humidity;BME280_pressure;Samples;Min_cycle;Max_cycle;Signal;HPM_P1;HPM_P2
2022/08/28 00:09:24;;;;;;;2.25;1.50;;;12.80;99.90;;;;;;20779754;28;20115;-52
2022/08/28 00:19:27;;;;;;;2.10;1.52;;;12.70;99.90;;;;;;20741246;28;20072;-52
2022/08/28 00:29:30;;;;;;;2.40;1.65;;;12.70;99.90;;;;;;20740771;28;20060;-53
2022/08/28 00:39:33;;;;;;;2.38;1.73;;;12.80;99.90;;;;;;20708231;28;20030;-48
2022/08/28 00:49:52;;;;;;;3.40;1.90;;;12.90;99.90;;;;;;20723099;28;20049;-52
2022/08/28 00:59:57;;;;;;;2.88;1.92;;;13.20;99.90;;;;;;20739394;28;20050;-53
2022/08/28 01:10:00;;;;;;;2.00;1.58;;;13.40;99.90;;;;;;20723033;28;20485;-50
2022/08/28 01:20:09;;;;;;;2.53;1.73;;;13.60;99.90;;;;;;20738486;28;20394;-51
2022/08/28 01:30:16;;;;;;;2.17;1.70;;;13.60;99.90;;;;;;20738112;28;20112;-58
2022/08/28 01:40:25;;;;;;;3.28;1.50;;;13.70;99.90;;;;;;20705513;28;20042;-52
2022/08/28 01:50:28;;;;;;;2.53;1.50;;;13.50;99.90;;;;;;20723828;28;20096;-53
2022/08/28 02:00:30;;;;;;;1.60;1.30;;;13.60;99.90;;;;;;20751310;28;20104;-59
2022/08/28 02:10:37;;;;;;;4.25;2.05;;;13.60;99.90;;;;;;20734618;28;20120;-59
2022/08/28 02:20:41;;;;;;;2.30;1.85;;;13.60;99.90;;;;;;20733516;28;20494;-58
2022/08/28 02:30:44;;;;;;;4.38;3.03;;;13.70;99.90;;;;;;20748711;28;20118;-59
2022/08/28 02:40:46;;;;;;;4.07;3.00;;;13.70;99.90;;;;;;20748389;28;20034;-54
2022/08/28 02:50:49;;;;;;;3.95;3.00;;;13.70;99.90;;;;;;20730602;28;20042;-58
2022/08/28 03:00:53;;;;;;;3.45;2.95;;;13.60;99.90;;;;;;20729859;28;20055;-53
2022/08/28 03:10:56;;;;;;;9.23;3.58;;;13.70;99.90;;;;;;20713721;28;20042;-52
2022/08/28 03:20:59;;;;;;;4.40;3.72;;;13.60;99.90;;;;;;20744692;28;20072;-52
2022/08/28 03:31:03;;;;;;;5.60;3.88;;;13.60;99.90;;;;;;20743879;28;20038;-53
2022/08/28 03:41:11;;;;;;;5.80;3.90;;;13.50;99.90;;;;;;20743536;28;20034;-52
2022/08/28 03:51:17;;;;;;;8.02;4.20;;;13.40;99.90;;;;;;20742285;28;20050;-50
2022/08/28 04:01:20;;;;;;;5.60;4.18;;;13.30;99.90;;;;;;20725495;28;20093;-61
2022/08/28 04:11:23;;;;;;;5.78;4.47;;;13.20;99.90;;;;;;20740245;28;20099;-58
2022/08/28 04:21:26;;;;;;;5.60;4.53;;;13.00;99.90;;;;;;20740307;28;20045;-58
2022/08/28 04:31:28;;;;;;;5.22;4.22;;;13.00;99.90;;;;;;20740625;28;20033;-58
2022/08/28 04:41:31;;;;;;;3.50;3.00;;;12.90;99.90;;;;;;20723122;28;20037;-52
2022/08/28 04:51:33;;;;;;;4.22;3.38;;;12.90;99.90;;;;;;20722124;28;20045;-59
2022/08/28 05:01:36;;;;;;;7.82;3.88;;;13.10;99.90;;;;;;20738400;28;20046;-53
2022/08/28 05:11:39;;;;;;;6.35;4.25;;;13.30;99.90;;;;;;20722209;28;20042;-51
2022/08/28 05:21:42;;;;;;;5.30;3.40;;;13.40;99.90;;;;;;20721337;28;20556;-58
2022/08/28 05:31:46;;;;;;;5.85;4.00;;;13.40;99.90;;;;;;20736663;28;20042;-49
2022/08/28 05:41:48;;;;;;;5.00;3.60;;;13.60;99.90;;;;;;20752938;28;20061;-53
2022/08/28 05:51:51;;;;;;;4.22;3.38;;;13.70;99.90;;;;;;20734878;28;20049;-52
2022/08/28 06:01:54;;;;;;;5.60;3.35;;;13.80;99.90;;;;;;20750738;28;20041;-48
2022/08/28 06:12:01;;;;;;;3.58;3.08;;;14.10;99.90;;;;;;20735193;28;20057;-53
2022/08/28 06:22:05;;;;;;;4.97;3.20;;;14.20;99.90;;;;;;20749357;28;20544;-49
2022/08/28 06:32:07;;;;;;;8.50;3.03;;;14.00;99.90;;;;;;20748672;28;20514;-59
2022/08/28 06:42:10;;;;;;;3.00;2.40;;;14.30;99.90;;;;;;20747809;28;20030;-58
2022/08/28 06:52:14;;;;;;;3.90;2.20;;;15.80;99.90;;;;;;20730588;28;20060;-54
2022/08/28 07:02:17;;;;;;;3.55;2.00;;;17.20;99.90;;;;;;20746342;28;20097;-59
2022/08/28 07:12:19;;;;;;;2.70;2.10;;;18.70;99.90;;;;;;20729355;28;20084;-57
2022/08/28 07:22:25;;;;;;;3.47;2.03;;;20.20;99.90;;;;;;20728333;28;20186;-57
2022/08/28 07:32:28;;;;;;;2.92;2.60;;;21.30;99.90;;;;;;20743827;28;20072;-60
2022/08/28 07:52:55;;;;;;;2.58;2.17;;;21.70;99.90;;;;;;20740795;28;20119;-58
2022/08/28 08:02:57;;;;;;;2.75;2.45;;;22.40;99.90;;;;;;20740416;28;20038;-57
2022/08/28 08:13:00;;;;;;;3.08;2.75;;;23.00;99.90;;;;;;20724324;28;20654;-56
2022/08/28 08:23:03;;;;;;;4.22;3.13;;;23.30;99.60;;;;;;20723850;28;20092;-57
2022/08/28 08:33:05;;;;;;;4.13;2.80;;;23.10;99.90;;;;;;20723238;28;20033;-60
2022/08/28 08:43:09;;;;;;;3.95;2.95;;;23.60;99.90;;;;;;20722931;28;20456;-55
2022/08/28 08:53:22;;;;;;;3.30;2.80;;;23.70;99.90;;;;;;20734044;28;20105;-59
2022/08/28 09:03:45;;;;;;;3.90;3.25;;;23.50;99.90;;;;;;20738126;28;20556;-56
2022/08/28 09:14:05;;;;;;;3.92;3.08;;;23.60;99.90;;;;;;20723094;28;20038;-60
2022/08/28 09:24:20;;;;;;;3.53;3.22;;;23.00;99.90;;;;;;20721485;28;20042;-55
2022/08/28 09:34:31;;;;;;;5.93;4.22;;;22.10;99.90;;;;;;20720751;28;20038;-54
2022/08/28 09:44:50;;;;;;;4.65;4.15;;;21.50;99.90;;;;;;20719657;28;20100;-54
2022/08/28 09:54:54;;;;;;;4.40;4.00;;;21.30;99.90;;;;;;20736974;28;20068;-60
2022/08/28 10:05:11;;;;;;;6.03;4.80;;;21.80;99.90;;;;;;20735947;28;20068;-59
2022/08/28 10:15:28;;;;;;;4.65;4.20;;;21.70;99.90;;;;;;20745444;28;20030;-59
2022/08/28 10:25:59;;;;;;;5.22;3.33;;;23.20;99.90;;;;;;20750925;28;20057;-59
2022/08/28 10:36:18;;;;;;;6.53;4.18;;;24.10;99.90;;;;;;20748416;28;20038;-53
2022/08/28 10:46:45;;;;;;;5.38;4.18;;;24.30;99.90;;;;;;20747392;28;20054;-57
2022/08/28 10:57:29;;;;;;;4.73;3.73;;;25.60;99.90;;;;;;20746970;28;20033;-50
2022/08/28 11:08:02;;;;;;;4.25;3.85;;;27.00;99.90;;;;;;20401004;28;20583;-56
2022/08/28 11:18:38;;;;;;;5.80;4.82;;;27.30;99.90;;;;;;20400068;29;20121;-55
2022/08/28 11:28:46;;;;;;;5.45;4.70;;;26.40;99.70;;;;;;20398689;28;20574;-60
2022/08/28 11:38:52;;;;;;;6.10;5.20;;;25.20;99.30;;;;;;20527057;28;20042;-54
2022/08/28 11:48:58;;;;;;;9.70;6.30;;;24.90;99.90;;;;;;20726407;28;20642;-55
2022/08/28 11:59:19;;;;;;;9.55;7.53;;;24.80;99.90;;;;;;20741988;28;20041;-55
2022/08/28 12:09:25;;;;;;;11.20;9.93;;;25.00;99.90;;;;;;20725097;28;20486;-61
2022/08/28 12:19:43;;;;;;;12.60;10.30;;;24.70;99.90;;;;;;20724399;28;20552;-54
2022/08/28 12:29:52;;;;;;;10.27;9.18;;;23.70;99.90;;;;;;20723503;28;20441;-54
2022/08/28 12:40:01;;;;;;;10.20;9.02;;;23.70;99.90;;;;;;20740262;28;20037;-54
2022/08/28 12:50:26;;;;;;;9.77;8.20;;;24.70;99.90;;;;;;20739866;28;20568;-60
2022/08/28 13:00:34;;;;;;;9.20;8.20;;;25.60;99.40;;;;;;20739068;28;20046;-53
2022/08/28 13:10:49;;;;;;;10.43;8.70;;;25.50;99.90;;;;;;20722337;28;20041;-55
2022/08/28 13:20:52;;;;;;;8.82;7.68;;;25.30;99.90;;;;;;20737957;28;20100;-56
2022/08/28 13:30:58;;;;;;;8.38;6.75;;;26.80;99.90;;;;;;20729241;28;20491;-55
2022/08/28 13:41:03;;;;;;;7.20;6.50;;;27.00;99.40;;;;;;20729473;28;20038;-56
2022/08/28 13:51:09;;;;;;;6.63;6.03;;;26.00;99.90;;;;;;20740141;28;20108;-59
2022/08/28 14:01:12;;;;;;;9.23;6.95;;;26.00;99.90;;;;;;20733191;28;20072;-56
2022/08/28 14:11:15;;;;;;;6.20;5.18;;;26.00;99.80;;;;;;20732346;28;20501;-53
2022/08/28 14:21:18;;;;;;;6.25;5.65;;;25.50;99.90;;;;;;20717077;28;20034;-59
2022/08/28 14:31:22;;;;;;;4.95;4.50;;;25.90;99.90;;;;;;20764442;28;20581;-59
2022/08/28 14:41:26;;;;;;;5.60;4.53;;;26.60;99.00;;;;;;20748839;28;20435;-54
2022/08/28 14:51:31;;;;;;;5.50;5.00;;;25.50;99.10;;;;;;20731430;28;20104;-54
2022/08/28 15:01:37;;;;;;;7.25;5.72;;;24.30;99.90;;;;;;20713937;28;20556;-60
2022/08/28 15:11:41;;;;;;;9.57;7.80;;;23.70;99.90;;;;;;20730162;28;20403;-54
2022/08/28 15:21:51;;;;;;;11.15;9.88;;;22.90;99.90;;;;;;20747155;28;20037;-51
2022/08/28 15:31:56;;;;;;;9.45;7.75;;;22.40;99.90;;;;;;20746351;28;20136;-60
2022/08/28 15:41:59;;;;;;;13.18;11.65;;;21.70;99.90;;;;;;20744420;28;20034;-51
2022/08/28 15:52:02;;;;;;;14.15;12.65;;;21.00;99.90;;;;;;20727246;28;20062;-53
2022/08/28 16:02:05;;;;;;;12.65;11.30;;;20.40;99.90;;;;;;20727120;28;20116;-50
2022/08/28 16:12:07;;;;;;;14.98;13.07;;;20.10;99.90;;;;;;20725670;28;20046;-53
2022/08/28 16:22:14;;;;;;;19.77;14.68;;;19.90;99.90;;;;;;20724982;28;20037;-60
2022/08/28 16:32:18;;;;;;;17.77;15.23;;;19.50;99.90;;;;;;20740905;28;20050;-60
2022/08/28 16:42:22;;;;;;;19.80;16.13;;;19.20;99.90;;;;;;20740752;28;20442;-59
2022/08/28 16:52:24;;;;;;;17.05;14.75;;;19.00;99.90;;;;;;20739521;28;20498;-51
2022/08/28 17:02:27;;;;;;;18.52;15.10;;;18.90;99.90;;;;;;20722750;28;20038;-59
2022/08/28 17:12:30;;;;;;;17.10;14.45;;;18.80;99.90;;;;;;20722944;28;20034;-59
2022/08/28 17:22:33;;;;;;;17.75;13.45;;;18.60;99.90;;;;;;20748034;28;20042;-60
2022/08/28 17:32:39;;;;;;;16.08;14.27;;;18.50;99.90;;;;;;20738422;28;20064;-53
2022/08/28 17:42:44;;;;;;;17.23;14.43;;;18.40;99.90;;;;;;20737777;28;20033;-52
2022/08/28 17:52:47;;;;;;;20.90;16.83;;;18.20;99.90;;;;;;20752840;28;20100;-53
2022/08/28 18:02:51;;;;;;;21.48;16.58;;;17.90;99.90;;;;;;20720064;28;20034;-52
2022/08/28 18:12:54;;;;;;;29.13;22.23;;;17.30;99.90;;;;;;20735653;28;20181;-59
2022/08/28 18:22:56;;;;;;;22.27;17.80;;;16.80;99.90;;;;;;20734349;28;20041;-50
2022/08/28 18:33:00;;;;;;;22.65;16.42;;;16.70;99.90;;;;;;20716672;28;20033;-51
2022/08/28 18:43:04;;;;;;;23.25;15.25;;;16.80;99.90;;;;;;20733128;28;20471;-51
2022/08/28 18:53:07;;;;;;;25.13;17.00;;;16.70;99.90;;;;;;20748146;28;20084;-51
2022/08/28 19:03:10;;;;;;;27.70;20.13;;;16.60;99.90;;;;;;20747335;28;20065;-49
2022/08/28 19:13:13;;;;;;;24.33;17.92;;;16.30;99.90;;;;;;20747247;28;20038;-52
2022/08/28 19:23:16;;;;;;;21.95;16.33;;;15.90;99.90;;;;;;20745886;28;20096;-52
2022/08/28 19:33:19;;;;;;;37.42;27.80;;;15.70;99.90;;;;;;20745373;28;20041;-51
2022/08/28 19:43:23;;;;;;;30.98;21.23;;;15.60;99.90;;;;;;20744854;28;20556;-50
2022/08/28 19:53:26;;;;;;;26.27;18.73;;;15.70;99.90;;;;;;20727234;28;20116;-53
2022/08/28 20:03:29;;;;;;;23.17;16.33;;;15.90;99.90;;;;;;20743054;28;20038;-59
2022/08/28 20:13:32;;;;;;;26.88;19.15;;;16.20;99.90;;;;;;20743030;28;20042;-58
2022/08/28 20:23:38;;;;;;;24.95;18.30;;;16.40;99.90;;;;;;20701276;28;20045;-52
2022/08/28 20:33:46;;;;;;;22.70;17.30;;;16.60;99.90;;;;;;20724684;28;20038;-59
2022/08/28 20:44:22;;;;;;;13.57;8.52;;;16.70;99.90;;;;;;20740250;28;20030;-52
2022/08/28 20:54:45;;;;;;;12.05;9.23;;;16.00;99.90;;;;;;20642466;28;20054;-54
2022/08/28 21:04:48;;;;;;;14.35;10.27;;;14.90;99.90;;;;;;20657979;28;20452;-56
2022/08/28 21:14:51;;;;;;;9.57;5.65;;;14.60;99.90;;;;;;20641667;28;20030;-56
2022/08/28 21:24:55;;;;;;;17.27;10.07;;;14.30;99.90;;;;;;20641543;28;20042;-56
2022/08/28 21:34:57;;;;;;;11.88;8.85;;;14.10;99.90;;;;;;20625243;28;20034;-54
2022/08/28 21:45:00;;;;;;;8.23;5.80;;;14.10;99.90;;;;;;20674325;28;20041;-53
2022/08/28 21:55:11;;;;;;;7.15;5.82;;;13.80;99.90;;;;;;20819413;28;20042;-53
2022/08/28 22:05:14;;;;;;;21.83;12.95;;;13.50;99.90;;;;;;20803136;28;20088;-52
2022/08/28 22:15:17;;;;;;;26.35;16.77;;;13.50;99.90;;;;;;20816712;28;20042;-52
2022/08/28 22:25:20;;;;;;;27.73;18.40;;;13.60;99.90;;;;;;20816171;28;20092;-55
2022/08/28 22:35:23;;;;;;;32.97;23.80;;;13.70;99.90;;;;;;20831594;28;20084;-55
2022/08/28 22:45:25;;;;;;;39.60;26.00;;;13.80;99.90;;;;;;20762521;28;20097;-55
2022/08/28 22:55:28;;;;;;;24.75;18.13;;;13.80;99.90;;;;;;20732159;28;20037;-55
2022/08/28 23:05:32;;;;;;;27.85;18.52;;;13.90;99.90;;;;;;20747227;28;20406;-56
2022/08/28 23:15:37;;;;;;;28.05;20.45;;;13.80;99.90;;;;;;20713945;28;20042;-55
2022/08/28 23:25:39;;;;;;;27.42;18.90;;;13.80;99.90;;;;;;20729940;28;20050;-57
2022/08/28 23:35:42;;;;;;;23.35;17.38;;;13.80;99.90;;;;;;20729167;28;20037;-58
2022/08/28 23:45:44;;;;;;;28.33;19.55;;;13.80;99.90;;;;;;20727749;28;20045;-55
2022/08/28 23:55:48;;;;;;;38.95;24.33;;;13.80;99.90;;;;;;20745546;28;20030;-58
